Time;durP1;ratioP1;P1;durP2;ratioP2;P2;SDS_P1;SDS_P2;PMS_P1;PMS_P2;Temp;Humidity;BMP_temperature;BMP_pressure;BME280_temperature;BME280_humidity;BME280_pressure;Samples;Min_cycle;Max_cycle;Signal;HPM_P1;HPM_P2
2021/04/01 00:00:52;;;;;;;52.72;32.60;;;15.00;60.10;;;;;;4960111;28;20034;-74
2021/04/01 00:03:18;;;;;;;52.97;32.28;;;15.00;60.50;;;;;;5003141;28;20076;-73
2021/04/01 00:05:43;;;;;;;53.38;32.28;;;15.00;60.70;;;;;;5007653;28;20384;-73
2021/04/01 00:08:10;;;;;;;55.20;32.38;;;14.90;61.00;;;;;;4984849;28;20109;-73
2021/04/01 00:10:41;;;;;;;51.03;32.40;;;14.90;61.10;;;;;;5002514;28;20030;-73
2021/04/01 00:13:08;;;;;;;54.75;31.38;;;14.90;61.30;;;;;;5000030;28;20062;-73
2021/04/01 00:15:36;;;;;;;50.58;29.80;;;15.00;61.40;;;;;;4995217;28;20054;-73
2021/04/01 00:18:02;;;;;;;49.90;31.90;;;15.00;61.40;;;;;;4998703;28;20026;-73
2021/04/01 00:20:27;;;;;;;53.40;32.88;;;14.90;61.50;;;;;;4999314;28;20018;-79
2021/04/01 00:22:53;;;;;;;51.55;31.38;;;15.00;61.60;;;;;;4997703;28;20406;-73
2021/04/01 00:25:19;;;;;;;50.45;31.48;;;15.00;61.70;;;;;;4980990;28;20117;-74
2021/04/01 00:27:45;;;;;;;52.08;31.50;;;15.00;61.60;;;;;;4998838;28;20426;-74
2021/04/01 00:30:12;;;;;;;55.45;32.75;;;15.10;61.50;;;;;;5011561;28;20037;-73
2021/04/01 00:32:37;;;;;;;51.22;31.40;;;15.10;61.30;;;;;;5010528;28;20038;-74
2021/04/01 00:35:04;;;;;;;51.38;31.73;;;15.20;61.30;;;;;;5010839;28;20104;-73
2021/04/01 00:37:31;;;;;;;52.03;31.65;;;15.20;61.20;;;;;;4996201;28;20034;-78
2021/04/01 00:39:57;;;;;;;51.03;30.83;;;15.20;61.20;;;;;;5000731;28;20048;-73
2021/04/01 00:42:23;;;;;;;52.60;31.90;;;15.20;61.10;;;;;;5011240;28;20022;-73
2021/04/01 00:44:49;;;;;;;52.63;31.65;;;15.20;61.20;;;;;;5010587;28;20535;-74
2021/04/01 00:47:15;;;;;;;51.80;32.63;;;15.20;61.20;;;;;;4993304;28;20042;-73
2021/04/01 00:49:40;;;;;;;57.63;33.33;;;15.20;61.10;;;;;;5010497;28;20044;-76
2021/04/01 00:52:07;;;;;;;52.88;33.05;;;15.20;61.00;;;;;;4993392;28;20037;-73
2021/04/01 00:54:34;;;;;;;52.88;31.90;;;15.20;61.00;;;;;;4993310;28;20041;-78
2021/04/01 00:57:00;;;;;;;50.40;32.42;;;15.20;61.10;;;;;;4997672;28;20045;-75
2021/04/01 00:59:27;;;;;;;53.88;33.67;;;15.10;61.30;;;;;;4989959;28;20034;-73
2021/04/01 01:02:02;;;;;;;54.88;32.92;;;15.10;61.30;;;;;;4990676;28;20023;-74
2021/04/01 01:04:29;;;;;;;55.03;33.97;;;15.00;61.10;;;;;;4992188;28;20077;-73
2021/04/01 01:06:55;;;;;;;51.30;32.60;;;14.90;61.20;;;;;;4997353;28;20042;-74
2021/04/01 01:09:21;;;;;;;61.92;33.22;;;14.90;61.50;;;;;;4982177;28;20034;-74
2021/04/01 01:11:46;;;;;;;59.83;32.50;;;14.80;61.70;;;;;;4997898;28;20030;-73
2021/04/01 01:14:12;;;;;;;58.25;33.92;;;14.80;61.90;;;;;;4979443;28;20483;-74
2021/04/01 01:16:38;;;;;;;59.33;33.17;;;14.90;62.00;;;;;;5000967;28;20038;-78
2021/04/01 01:19:04;;;;;;;54.47;31.98;;;14.90;62.00;;;;;;4980763;28;20038;-73
2021/04/01 01:21:30;;;;;;;53.30;32.58;;;14.90;61.90;;;;;;4999064;28;20037;-74
2021/04/01 01:23:56;;;;;;;52.47;32.83;;;14.90;61.90;;;;;;5003109;28;20022;-73
2021/04/01 01:26:23;;;;;;;54.95;33.33;;;14.90;62.00;;;;;;4980417;28;20105;-76
2021/04/01 01:28:48;;;;;;;56.65;33.55;;;14.90;62.00;;;;;;4997173;28;20034;-73
2021/04/01 01:31:18;;;;;;;56.70;34.30;;;14.80;62.00;;;;;;4996386;28;20034;-73
2021/04/01 01:33:44;;;;;;;59.33;34.42;;;14.70;61.90;;;;;;4998604;28;20050;-75
2021/04/01 01:36:11;;;;;;;55.25;33.67;;;14.70;62.00;;;;;;5002150;28;20033;-74
2021/04/01 01:38:37;;;;;;;58.13;35.40;;;14.70;62.10;;;;;;5002808;28;20478;-78
2021/04/01 01:41:03;;;;;;;56.95;34.15;;;14.60;62.30;;;;;;5004399;28;20030;-76
2021/04/01 01:43:30;;;;;;;57.50;35.25;;;14.60;62.60;;;;;;4983075;28;20040;-74
2021/04/01 01:45:55;;;;;;;61.10;35.55;;;14.50;62.90;;;;;;4962974;28;20037;-73
2021/04/01 01:48:21;;;;;;;60.47;34.70;;;14.50;63.30;;;;;;4994867;28;20096;-76
2021/04/01 01:50:47;;;;;;;57.78;34.20;;;14.50;63.50;;;;;;4959149;28;20058;-73
2021/04/01 01:53:12;;;;;;;59.70;35.50;;;14.50;63.50;;;;;;4999012;28;20031;-73
2021/04/01 01:55:39;;;;;;;60.75;34.05;;;14.50;63.60;;;;;;4997814;28;20493;-75
2021/04/01 01:58:05;;;;;;;59.30;34.75;;;14.40;63.80;;;;;;4980189;28;20038;-73
2021/04/01 02:00:42;;;;;;;62.97;36.30;;;14.40;64.10;;;;;;5001755;28;20041;-74
2021/04/01 02:03:09;;;;;;;60.65;35.65;;;14.30;64.30;;;;;;4997908;28;20114;-73
2021/04/01 02:05:37;;;;;;;62.90;35.33;;;14.30;64.30;;;;;;4978151;28;20121;-75
2021/04/01 02:08:04;;;;;;;71.10;39.17;;;14.30;64.50;;;;;;4995925;28;20019;-73
2021/04/01 02:10:34;;;;;;;75.68;41.63;;;14.20;64.60;;;;;;4961845;28;20117;-77
2021/04/01 02:13:01;;;;;;;73.07;41.13;;;14.20;64.50;;;;;;4997136;28;20030;-74
2021/04/01 02:15:29;;;;;;;89.47;45.95;;;14.20;64.40;;;;;;4995160;28;20057;-74
2021/04/01 02:18:13;;;;;;;91.85;47.50;;;14.10;64.30;;;;;;4975967;28;20045;-74
2021/04/01 02:20:45;;;;;;;88.55;47.15;;;14.10;64.30;;;;;;4998711;28;20030;-74
2021/04/01 02:23:18;;;;;;;83.77;44.27;;;14.10;64.30;;;;;;4993899;28;20039;-74
2021/04/01 02:25:46;;;;;;;83.70;44.05;;;14.00;64.30;;;;;;5009767;28;20795;-77
2021/04/01 02:28:13;;;;;;;75.68;41.67;;;14.00;64.40;;;;;;5010249;28;20477;-74
2021/04/01 02:30:45;;;;;;;75.63;42.85;;;14.00;64.40;;;;;;5010324;28;20083;-74
2021/04/01 02:33:11;;;;;;;80.22;42.40;;;14.10;64.50;;;;;;5008949;28;20030;-73
2021/04/01 02:35:37;;;;;;;73.35;42.72;;;14.10;64.30;;;;;;5017610;28;20026;-73
2021/04/01 02:38:04;;;;;;;78.63;41.42;;;14.20;64.10;;;;;;4993025;28;20047;-74
2021/04/01 02:40:30;;;;;;;75.57;42.05;;;14.20;63.90;;;;;;5010084;28;20042;-73
2021/04/01 02:42:57;;;;;;;70.75;41.22;;;14.20;63.80;;;;;;5008262;28;20030;-74
2021/04/01 02:45:23;;;;;;;71.30;40.58;;;14.20;63.60;;;;;;5009626;28;20022;-73
2021/04/01 02:47:49;;;;;;;72.47;40.13;;;14.20;63.60;;;;;;5009522;28;20160;-80
2021/04/01 02:50:15;;;;;;;72.05;42.80;;;14.20;63.80;;;;;;4976043;28;20128;-73
2021/04/01 02:52:41;;;;;;;70.18;40.50;;;14.20;63.80;;;;;;5011379;28;20026;-74
2021/04/01 02:55:09;;;;;;;67.45;40.03;;;14.20;63.70;;;;;;5011958;28;20050;-74
2021/04/01 02:57:35;;;;;;;67.75;40.67;;;14.20;63.70;;;;;;5013206;28;20038;-74
2021/04/01 03:00:05;;;;;;;72.57;41.50;;;14.10;63.50;;;;;;4994780;28;20057;-73
2021/04/01 03:02:31;;;;;;;71.72;41.53;;;14.10;63.60;;;;;;4993416;28;20025;-73
2021/04/01 03:04:58;;;;;;;71.30;41.70;;;14.10;63.70;;;;;;5003972;28;20112;-74
2021/04/01 03:07:23;;;;;;;72.65;42.25;;;14.10;63.60;;;;;;4976009;28;20038;-74
2021/04/01 03:09:49;;;;;;;68.40;40.55;;;14.20;63.60;;;;;;4975483;28;20038;-79
2021/04/01 03:12:15;;;;;;;66.50;40.30;;;14.20;63.50;;;;;;4985675;28;20117;-73
2021/04/01 03:14:40;;;;;;;67.50;40.45;;;14.20;63.40;;;;;;4992100;28;20402;-74
2021/04/01 03:17:06;;;;;;;68.72;39.28;;;14.20;63.30;;;;;;4992640;28;20034;-74
2021/04/01 03:19:31;;;;;;;66.00;37.70;;;14.30;63.30;;;;;;4975823;28;20133;-75
2021/04/01 03:21:57;;;;;;;67.75;39.85;;;14.30;63.30;;;;;;4991921;28;20113;-74
2021/04/01 03:24:23;;;;;;;67.70;39.13;;;14.20;63.30;;;;;;4973070;28;20118;-74
2021/04/01 03:26:48;;;;;;;64.85;39.55;;;14.20;63.50;;;;;;4974021;28;20031;-74
2021/04/01 03:29:14;;;;;;;67.07;39.15;;;14.10;63.60;;;;;;4986132;28;20427;-74
2021/04/01 03:31:40;;;;;;;66.78;39.63;;;14.10;63.80;;;;;;4987960;28;20045;-74
2021/04/01 03:34:05;;;;;;;65.50;38.85;;;14.10;64.00;;;;;;4985815;28;20031;-77
2021/04/01 03:36:31;;;;;;;66.85;38.17;;;14.00;64.10;;;;;;4978208;28;20026;-76
2021/04/01 03:38:58;;;;;;;69.97;38.92;;;13.90;64.10;;;;;;4978898;28;20483;-74
2021/04/01 03:41:23;;;;;;;66.68;38.78;;;13.90;64.20;;;;;;4979111;28;20074;-74
2021/04/01 03:43:49;;;;;;;68.53;40.40;;;13.90;64.30;;;;;;4980966;28;20039;-74
2021/04/01 03:46:15;;;;;;;66.18;39.63;;;13.80;64.50;;;;;;4982181;28;20512;-75
2021/04/01 03:48:41;;;;;;;67.60;38.15;;;13.80;64.50;;;;;;4978698;28;20047;-74
2021/04/01 03:51:07;;;;;;;69.50;39.67;;;13.80;64.60;;;;;;4977462;28;20074;-74
2021/04/01 03:53:33;;;;;;;63.42;39.42;;;13.80;64.60;;;;;;4978588;28;20030;-75
2021/04/01 03:55:59;;;;;;;65.07;39.10;;;13.80;64.70;;;;;;4979870;28;20040;-75
2021/04/01 04:13:55;;;;;;;66.50;38.85;;;13.90;64.70;;;;;;4978843;28;20039;-74
2021/04/01 04:16:21;;;;;;;68.32;39.97;;;13.80;64.70;;;;;;5010942;28;20045;-75
2021/04/01 04:18:47;;;;;;;68.03;39.53;;;13.80;64.70;;;;;;5011918;28;20038;-74
2021/04/01 04:21:16;;;;;;;69.10;40.03;;;13.80;64.80;;;;;;5010723;28;20091;-75
2021/04/01 04:23:45;;;;;;;65.20;39.00;;;13.80;64.70;;;;;;5011824;28;20040;-74
2021/04/01 04:26:11;;;;;;;69.90;39.05;;;13.80;64.70;;;;;;5003854;28;20038;-75
2021/04/01 04:28:38;;;;;;;63.15;38.15;;;13.80;64.70;;;;;;4979089;28;20442;-74
2021/04/01 04:31:05;;;;;;;61.47;37.58;;;13.80;64.90;;;;;;4979967;28;20044;-75
2021/04/01 04:33:31;;;;;;;65.90;38.80;;;13.70;64.80;;;;;;5000982;28;20042;-76
2021/04/01 04:35:57;;;;;;;63.00;38.50;;;13.70;64.90;;;;;;4998311;28;20041;-75
2021/04/01 04:38:24;;;;;;;65.88;39.22;;;13.70;64.90;;;;;;4999625;28;20034;-77
2021/04/01 04:40:56;;;;;;;63.38;38.75;;;13.60;65.00;;;;;;5002686;28;20034;-75
2021/04/01 04:43:27;;;;;;;62.45;37.88;;;13.50;65.60;;;;;;4999399;28;20022;-74
2021/04/01 04:45:53;;;;;;;69.25;39.45;;;13.50;65.30;;;;;;4993711;28;20036;-75
2021/04/01 04:48:19;;;;;;;64.70;38.50;;;13.50;65.40;;;;;;5001574;28;20031;-74
2021/04/01 04:50:46;;;;;;;63.90;39.25;;;13.40;65.60;;;;;;4973727;28;20022;-73
2021/04/01 04:53:13;;;;;;;64.97;38.17;;;13.20;66.40;;;;;;4981552;28;20085;-73
2021/04/01 04:55:39;;;;;;;66.13;38.47;;;13.10;66.30;;;;;;4999885;28;20041;-74
2021/04/01 04:58:26;;;;;;;64.07;38.72;;;13.00;66.50;;;;;;5009708;28;20040;-76
2021/04/01 05:01:10;;;;;;;66.03;39.30;;;12.90;66.80;;;;;;5011097;28;20026;-74
2021/04/01 05:06:44;;;;;;;65.53;38.37;;;12.80;67.20;;;;;;5009616;28;20049;-75
2021/04/01 05:09:11;;;;;;;63.60;37.93;;;12.80;67.30;;;;;;4992720;28;20033;-74
2021/04/01 05:11:36;;;;;;;65.97;38.67;;;12.80;67.30;;;;;;4993023;28;20529;-74
2021/04/01 05:14:03;;;;;;;63.80;38.30;;;12.80;67.30;;;;;;5009964;28;20425;-74
2021/04/01 05:16:28;;;;;;;63.67;37.70;;;12.90;67.30;;;;;;5009677;28;20025;-74
2021/04/01 05:18:57;;;;;;;67.60;39.17;;;12.80;67.30;;;;;;4992585;28;20049;-74
2021/04/01 05:21:29;;;;;;;69.53;39.03;;;12.80;67.40;;;;;;5008988;28;20207;-74
2021/04/01 05:23:55;;;;;;;62.10;37.00;;;12.80;67.50;;;;;;4989814;28;20413;-74
2021/04/01 05:26:41;;;;;;;67.67;38.40;;;12.70;67.50;;;;;;4976528;28;20090;-73
2021/04/01 05:29:12;;;;;;;67.57;39.10;;;12.70;67.60;;;;;;4996942;28;20496;-80
2021/04/01 05:31:40;;;;;;;67.50;37.90;;;12.70;67.60;;;;;;4976901;28;20097;-73
2021/04/01 05:34:06;;;;;;;72.13;40.40;;;12.70;67.60;;;;;;4979451;28;20065;-79
2021/04/01 05:36:35;;;;;;;69.67;39.37;;;12.90;67.40;;;;;;4999172;28;20026;-74
2021/04/01 05:39:01;;;;;;;64.70;39.60;;;12.80;67.10;;;;;;4974638;28;20046;-75
2021/04/01 05:41:29;;;;;;;65.27;39.37;;;12.90;67.20;;;;;;4975329;28;20026;-74
2021/04/01 05:44:13;;;;;;;64.77;37.80;;;13.10;66.90;;;;;;4977775;28;20069;-75
2021/04/01 05:46:54;;;;;;;68.23;39.33;;;13.20;66.50;;;;;;4983023;28;20025;-77
2021/04/01 05:49:26;;;;;;;75.40;39.93;;;13.50;65.90;;;;;;5008827;28;20038;-74
2021/04/01 06:05:55;;;;;;;69.32;39.67;;;14.80;62.30;;;;;;4982096;28;20485;-75
2021/04/01 06:08:27;;;;;;;68.18;39.72;;;15.20;61.30;;;;;;5008994;28;20026;-76
2021/04/01 06:10:54;;;;;;;66.07;39.92;;;15.50;60.70;;;;;;5005958;28;20038;-74
2021/04/01 06:13:23;;;;;;;61.53;39.42;;;15.70;60.10;;;;;;5008644;28;20115;-75
2021/04/01 06:15:50;;;;;;;64.10;38.47;;;16.00;59.30;;;;;;4991666;28;20085;-74
2021/04/01 06:18:20;;;;;;;66.53;40.13;;;16.20;58.50;;;;;;4990973;28;20499;-75
2021/04/01 06:20:50;;;;;;;72.97;40.30;;;16.40;57.90;;;;;;4997943;28;20038;-75
2021/04/01 06:23:30;;;;;;;70.88;41.00;;;16.60;57.40;;;;;;5007107;28;20041;-75
2021/04/01 06:25:57;;;;;;;65.25;39.75;;;16.90;56.40;;;;;;4988931;28;20785;-75
2021/04/01 06:28:44;;;;;;;66.57;41.13;;;17.20;55.70;;;;;;5011729;28;20406;-75
2021/04/01 06:31:11;;;;;;;65.88;39.85;;;17.50;54.80;;;;;;4994064;28;20030;-73
2021/04/01 06:33:52;;;;;;;62.22;38.72;;;17.80;54.20;;;;;;4995405;28;20037;-73
2021/04/01 06:36:21;;;;;;;62.90;39.17;;;18.10;53.70;;;;;;4995145;28;20042;-74
2021/04/01 06:38:47;;;;;;;60.55;38.33;;;18.40;52.90;;;;;;4995502;28;20730;-73
2021/04/01 06:41:26;;;;;;;66.28;40.05;;;18.60;52.30;;;;;;5013443;28;20033;-74
2021/04/01 06:44:20;;;;;;;66.88;40.17;;;18.90;51.80;;;;;;4995243;28;20032;-79
2021/04/01 06:46:47;;;;;;;64.32;40.47;;;19.20;51.00;;;;;;4993380;28;20037;-73
2021/04/01 06:49:28;;;;;;;64.13;40.60;;;19.50;50.40;;;;;;4993432;28;20191;-73
2021/04/01 07:00:20;;;;;;;74.05;41.92;;;20.90;46.90;;;;;;4994796;28;20389;-73
2021/04/01 07:02:52;;;;;;;71.85;43.88;;;21.40;45.40;;;;;;5008636;28;20097;-74
2021/04/01 07:05:26;;;;;;;71.93;43.75;;;21.70;44.20;;;;;;4987079;28;20029;-80
2021/04/01 07:08:02;;;;;;;77.97;43.42;;;21.90;43.00;;;;;;5009713;28;20041;-75
2021/04/01 07:13:35;;;;;;;73.97;46.72;;;22.50;41.70;;;;;;4988241;28;20089;-78
2021/04/01 07:16:22;;;;;;;70.10;44.67;;;22.90;41.00;;;;;;5006707;28;20042;-74
2021/04/01 07:19:03;;;;;;;76.05;48.33;;;23.40;40.00;;;;;;5004141;28;20072;-76
2021/04/01 07:48:49;;;;;;;59.85;36.85;;;26.20;33.90;;;;;;4991692;28;20064;-75
2021/04/01 07:54:12;;;;;;;56.22;34.08;;;26.60;33.50;;;;;;5010838;28;20041;-73
2021/04/01 07:56:58;;;;;;;57.35;35.42;;;26.90;33.80;;;;;;5005055;28;20076;-74
2021/04/01 08:04:48;;;;;;;57.30;33.78;;;27.40;33.60;;;;;;5010635;28;20201;-75
2021/04/01 08:07:15;;;;;;;58.53;31.73;;;27.50;33.20;;;;;;5011056;28;20019;-73
2021/04/01 08:09:46;;;;;;;55.05;30.48;;;27.40;33.20;;;;;;5009667;28;20034;-73
2021/04/01 08:12:27;;;;;;;49.90;28.48;;;27.50;34.20;;;;;;4993718;28;20394;-72
2021/04/01 08:15:02;;;;;;;52.50;29.75;;;27.70;33.40;;;;;;4977194;28;20060;-73
2021/04/01 08:17:36;;;;;;;49.67;27.92;;;27.90;33.30;;;;;;5011309;28;20021;-74
2021/04/01 08:20:02;;;;;;;54.83;28.35;;;28.20;33.40;;;;;;4993857;28;20033;-73
2021/04/01 08:22:30;;;;;;;50.83;26.65;;;28.30;33.10;;;;;;5011194;28;20052;-73
2021/04/01 08:25:02;;;;;;;47.40;25.95;;;28.30;32.80;;;;;;4993491;28;20041;-74
2021/04/01 08:27:48;;;;;;;53.40;28.55;;;28.40;33.00;;;;;;5011581;28;20033;-74
2021/04/01 08:35:41;;;;;;;53.25;29.15;;;28.40;33.10;;;;;;5004219;28;20042;-74
2021/04/01 08:38:12;;;;;;;58.47;31.67;;;28.70;33.10;;;;;;4993691;28;20517;-74
2021/04/01 08:40:39;;;;;;;54.67;30.02;;;28.70;32.70;;;;;;5010092;28;20134;-75
2021/04/01 08:43:35;;;;;;;55.78;30.08;;;28.80;32.90;;;;;;5003695;28;20088;-75
2021/04/01 08:46:18;;;;;;;53.60;28.92;;;29.10;32.80;;;;;;4991282;28;20037;-74
2021/04/01 08:49:14;;;;;;;51.55;27.55;;;29.40;32.50;;;;;;4989906;28;20482;-74
2021/04/01 08:52:17;;;;;;;51.00;26.92;;;29.30;32.40;;;;;;4990117;28;20022;-74
2021/04/01 08:54:50;;;;;;;49.42;27.02;;;29.10;32.50;;;;;;4990076;28;20062;-75
2021/04/01 08:57:42;;;;;;;53.08;27.65;;;29.00;32.60;;;;;;5009428;28;20033;-75
2021/04/01 09:00:16;;;;;;;53.75;27.38;;;28.70;32.90;;;;;;5010104;28;20041;-74
2021/04/01 09:02:52;;;;;;;49.92;26.38;;;28.70;33.30;;;;;;5006346;28;20034;-76
2021/04/01 09:05:20;;;;;;;55.40;27.05;;;28.90;33.30;;;;;;4990848;28;20027;-74
2021/04/01 09:08:06;;;;;;;54.90;29.13;;;29.00;33.30;;;;;;4972659;28;20027;-74
2021/04/01 09:10:36;;;;;;;54.00;26.48;;;28.90;32.90;;;;;;4990558;28;20038;-73
2021/04/01 09:15:46;;;;;;;51.53;26.45;;;29.00;33.20;;;;;;4990373;28;20061;-77
2021/04/01 09:18:23;;;;;;;49.42;26.45;;;29.20;33.00;;;;;;4973119;28;20399;-74
2021/04/01 09:20:50;;;;;;;48.35;25.17;;;29.50;32.60;;;;;;4989660;28;20026;-74
2021/04/01 09:23:17;;;;;;;48.42;25.95;;;29.50;32.30;;;;;;4997686;28;20736;-75
2021/04/01 09:25:46;;;;;;;47.17;23.80;;;29.60;32.10;;;;;;4992515;28;20350;-75
2021/04/01 09:28:13;;;;;;;41.78;22.67;;;29.70;31.90;;;;;;5010735;28;20118;-74
2021/04/01 09:30:40;;;;;;;44.60;23.35;;;30.00;31.40;;;;;;4976574;28;20818;-80
2021/04/01 09:33:10;;;;;;;43.17;21.73;;;29.70;31.00;;;;;;5006415;28;20034;-75
2021/04/01 09:35:39;;;;;;;41.97;19.85;;;29.60;31.00;;;;;;5005479;28;20192;-75
2021/04/01 09:38:10;;;;;;;38.33;20.27;;;29.70;31.20;;;;;;4980291;28;20046;-77
2021/04/01 09:40:48;;;;;;;37.05;19.52;;;29.70;30.80;;;;;;4994591;28;20050;-76
2021/04/01 09:43:17;;;;;;;36.40;18.67;;;29.80;30.90;;;;;;4980758;28;20030;-76
2021/04/01 09:45:44;;;;;;;37.88;19.77;;;29.70;30.50;;;;;;4988684;28;20132;-80
2021/04/01 09:48:11;;;;;;;40.25;19.88;;;29.70;30.30;;;;;;5000956;28;20061;-77
2021/04/01 09:50:44;;;;;;;41.60;20.75;;;29.70;30.70;;;;;;5000126;28;20027;-75
2021/04/01 09:53:16;;;;;;;44.58;20.98;;;29.70;30.70;;;;;;4999551;28;20026;-77
2021/04/01 09:55:44;;;;;;;40.83;18.25;;;29.70;30.80;;;;;;4994595;28;20030;-81
2021/04/01 09:58:20;;;;;;;43.50;21.48;;;29.70;30.80;;;;;;5000693;28;20482;-74
2021/04/01 10:03:40;;;;;;;43.92;21.20;;;29.60;30.40;;;;;;4994929;28;20062;-73
2021/04/01 10:06:06;;;;;;;40.03;19.35;;;29.20;30.70;;;;;;5012011;28;20112;-74
2021/04/01 10:08:37;;;;;;;47.58;20.80;;;29.10;31.40;;;;;;5013842;28;20109;-75
2021/04/01 10:11:23;;;;;;;41.40;19.75;;;29.10;31.10;;;;;;5013032;28;20034;-76
2021/04/01 10:14:03;;;;;;;41.40;20.25;;;29.20;31.20;;;;;;4967427;28;20100;-74
2021/04/01 10:16:29;;;;;;;40.00;21.60;;;29.30;31.00;;;;;;4994191;28;20047;-75
2021/04/01 10:18:55;;;;;;;46.42;22.67;;;29.40;31.10;;;;;;4993409;28;20477;-74
2021/04/01 10:21:21;;;;;;;45.85;23.05;;;29.40;31.10;;;;;;4960580;28;20141;-74
2021/04/01 10:23:52;;;;;;;47.65;25.35;;;29.60;30.90;;;;;;4977796;28;20128;-79
2021/04/01 10:26:21;;;;;;;51.45;26.25;;;29.70;31.00;;;;;;4999415;28;20023;-74
2021/04/01 10:29:14;;;;;;;52.97;29.77;;;29.70;31.20;;;;;;5000455;28;20036;-79
2021/04/01 10:31:46;;;;;;;50.00;28.27;;;29.70;31.60;;;;;;5013646;28;20040;-76
2021/04/01 10:34:29;;;;;;;52.33;27.83;;;29.80;31.50;;;;;;4995486;28;20022;-75
2021/04/01 10:36:59;;;;;;;54.17;28.95;;;29.70;31.70;;;;;;4995118;28;20401;-74
2021/04/01 10:39:31;;;;;;;53.53;28.80;;;29.80;31.50;;;;;;5013496;28;20068;-74
2021/04/01 10:41:57;;;;;;;;;;;29.90;31.70;;;;;;4995714;28;20083;-73
2021/04/01 10:44:23;;;;;;;58.72;32.03;;;29.70;31.40;;;;;;5004243;28;20611;-74
2021/04/01 10:46:55;;;;;;;55.33;28.40;;;29.30;31.50;;;;;;4993944;28;20025;-82
2021/04/01 10:49:23;;;;;;;55.65;31.13;;;29.10;32.20;;;;;;4997633;28;20061;-74
2021/04/01 10:51:54;;;;;;;53.55;29.33;;;29.30;32.30;;;;;;5012855;28;20022;-81
2021/04/01 10:54:20;;;;;;;64.00;34.60;;;29.30;32.20;;;;;;4994556;28;20034;-74
2021/04/01 10:56:53;;;;;;;54.10;30.80;;;29.30;32.10;;;;;;5012294;28;20037;-74
2021/04/01 10:59:38;;;;;;;58.53;32.47;;;29.30;32.10;;;;;;4995741;28;20033;-74
2021/04/01 11:02:11;;;;;;;56.05;31.55;;;29.20;31.70;;;;;;4994784;28;20493;-74
2021/04/01 11:04:39;;;;;;;61.65;35.53;;;29.00;32.30;;;;;;5000057;28;20077;-74
2021/04/01 11:07:06;;;;;;;61.72;33.58;;;29.00;31.80;;;;;;4992382;28;20037;-73
2021/04/01 11:09:33;;;;;;;57.95;31.30;;;28.90;31.90;;;;;;4993336;28;20038;-75
2021/04/01 11:12:15;;;;;;;62.30;33.55;;;28.70;31.30;;;;;;4992291;28;20181;-74
2021/04/01 11:15:04;;;;;;;;;;;28.70;31.10;;;;;;5010450;28;20066;-73
2021/04/01 11:17:31;;;;;;;60.45;32.78;;;28.50;30.90;;;;;;5004493;28;19909;-74
2021/04/01 11:20:00;;;;;;;64.70;36.17;;;28.60;30.90;;;;;;5012077;28;20056;-77
2021/04/01 11:22:27;;;;;;;59.95;34.90;;;28.40;31.30;;;;;;5012619;28;20557;-74
2021/04/01 11:24:53;;;;;;;60.42;35.53;;;28.50;31.40;;;;;;5011912;28;20041;-78
2021/04/01 11:27:21;;;;;;;64.50;36.75;;;28.40;31.30;;;;;;4994754;28;20030;-74
2021/04/01 11:29:55;;;;;;;66.90;37.13;;;28.00;31.70;;;;;;5006492;28;20041;-72
2021/04/01 11:32:23;;;;;;;72.57;40.75;;;27.80;31.80;;;;;;5006606;28;20057;-75
2021/04/01 11:34:51;;;;;;;66.32;40.00;;;27.30;32.40;;;;;;5027384;28;20041;-74
2021/04/01 11:37:22;;;;;;;65.70;38.28;;;27.30;33.60;;;;;;5013603;28;20071;-75
2021/04/01 11:39:50;;;;;;;74.25;42.55;;;27.50;33.60;;;;;;5032597;28;20041;-74
2021/04/01 11:42:17;;;;;;;71.55;41.78;;;27.50;33.00;;;;;;5021887;28;20022;-74
2021/04/01 11:44:45;;;;;;;67.03;40.30;;;27.30;32.70;;;;;;4990189;28;20116;-74
2021/04/01 11:47:16;;;;;;;71.80;43.47;;;27.10;33.50;;;;;;5018417;28;20029;-73
2021/04/01 11:49:42;;;;;;;73.78;45.90;;;26.90;33.20;;;;;;5012332;28;20034;-75
2021/04/01 11:52:10;;;;;;;71.97;43.15;;;26.70;34.20;;;;;;5011065;28;20026;-74
2021/04/01 11:54:37;;;;;;;74.13;44.45;;;26.80;34.30;;;;;;5012333;28;20042;-75
2021/04/01 11:57:03;;;;;;;76.47;46.10;;;26.90;34.40;;;;;;5011031;28;20080;-74
2021/04/01 11:59:34;;;;;;;85.47;51.75;;;26.50;34.60;;;;;;4994416;28;20050;-74
2021/04/01 12:02:04;;;;;;;77.60;48.33;;;26.20;34.80;;;;;;4991898;28;20474;-74
2021/04/01 12:04:33;;;;;;;75.38;49.83;;;25.70;35.70;;;;;;5001782;28;20038;-74
2021/04/01 12:06:59;;;;;;;82.75;53.47;;;25.40;35.80;;;;;;4987468;28;20038;-79
2021/04/01 12:09:26;;;;;;;73.53;49.13;;;25.00;36.20;;;;;;5011466;28;20037;-72
2021/04/01 12:11:51;;;;;;;75.90;48.13;;;24.70;37.70;;;;;;5011741;28;20397;-73
2021/04/01 12:14:18;;;;;;;81.13;52.53;;;25.10;37.50;;;;;;5003684;28;20038;-72
2021/04/01 12:16:44;;;;;;;73.65;48.35;;;25.00;36.20;;;;;;4985838;28;20482;-73
2021/04/01 12:19:10;;;;;;;73.78;48.67;;;25.10;37.10;;;;;;5011116;28;20053;-73
2021/04/01 12:21:37;;;;;;;72.18;46.97;;;25.40;36.90;;;;;;4994086;28;20026;-74
2021/04/01 12:24:04;;;;;;;92.88;55.90;;;25.60;36.70;;;;;;5009264;28;20062;-73
2021/04/01 12:26:42;;;;;;;84.40;55.15;;;25.00;36.20;;;;;;4993773;28;20032;-73
2021/04/01 12:29:07;;;;;;;91.88;59.15;;;24.50;37.50;;;;;;4974085;28;20062;-74
2021/04/01 12:31:42;;;;;;;90.15;58.22;;;24.60;37.60;;;;;;4987638;28;20112;-74
2021/04/01 12:34:11;;;;;;;82.93;53.85;;;24.70;37.50;;;;;;4988220;28;20395;-73
2021/04/01 12:36:41;;;;;;;78.88;51.05;;;24.70;37.80;;;;;;5000527;28;20022;-74
2021/04/01 12:39:11;;;;;;;89.43;55.63;;;24.70;37.20;;;;;;5006856;28;20103;-73
2021/04/01 12:41:39;;;;;;;81.78;51.00;;;24.10;36.90;;;;;;5010149;28;20022;-73
2021/04/01 12:44:12;;;;;;;75.43;47.67;;;23.70;38.50;;;;;;5064540;28;20794;-74
2021/04/01 12:46:44;;;;;;;81.40;52.25;;;23.70;38.60;;;;;;5063789;28;20052;-72
2021/04/01 12:49:11;;;;;;;82.75;50.08;;;23.70;38.40;;;;;;5067271;28;20029;-72
2021/04/01 12:51:42;;;;;;;77.55;49.65;;;23.40;38.90;;;;;;5059142;28;20049;-73
2021/04/01 12:54:10;;;;;;;73.13;47.72;;;22.90;39.70;;;;;;5058612;28;20021;-74
2021/04/01 12:56:39;;;;;;;72.63;44.75;;;22.90;39.80;;;;;;5062977;28;20392;-74
2021/04/01 12:59:13;;;;;;;72.93;45.00;;;23.00;39.80;;;;;;5062024;28;20087;-73
2021/04/01 13:01:50;;;;;;;67.38;42.50;;;23.00;39.80;;;;;;5061308;28;20024;-74
2021/04/01 13:04:18;;;;;;;63.60;40.40;;;22.60;40.30;;;;;;5059958;28;20427;-73
2021/04/01 13:11:48;;;;;;;54.40;33.45;;;22.60;39.80;;;;;;5066344;28;20044;-74
2021/04/01 13:14:14;;;;;;;43.35;28.20;;;22.50;39.50;;;;;;5064980;28;20518;-74
2021/04/01 13:16:40;;;;;;;45.30;28.90;;;22.50;39.60;;;;;;5065511;28;20025;-74
2021/04/01 13:19:06;;;;;;;44.88;27.02;;;22.60;39.50;;;;;;5065444;28;20017;-78
2021/04/01 13:26:37;;;;;;;39.22;25.10;;;22.60;38.70;;;;;;5065400;28;20064;-74
2021/04/01 13:29:06;;;;;;;37.55;22.80;;;22.60;39.50;;;;;;5064779;28;20020;-73
2021/04/01 13:36:51;;;;;;;30.58;17.52;;;22.40;39.90;;;;;;5066280;28;20107;-74
2021/04/01 13:39:23;;;;;;;26.83;14.63;;;22.40;40.20;;;;;;5065711;28;20021;-73
2021/04/01 13:42:11;;;;;;;25.73;13.93;;;22.60;39.10;;;;;;5065737;28;20020;-75
2021/04/01 13:44:49;;;;;;;22.38;13.48;;;22.60;39.20;;;;;;5062997;28;20544;-74
2021/04/01 13:47:15;;;;;;;22.98;13.23;;;22.60;39.60;;;;;;5059559;28;20032;-77
2021/04/01 13:49:42;;;;;;;22.00;12.90;;;22.30;39.60;;;;;;5065185;28;20111;-74
2021/04/01 13:52:21;;;;;;;21.52;11.63;;;21.80;40.40;;;;;;5065903;28;20064;-74
2021/04/01 13:54:52;;;;;;;15.27;9.40;;;21.10;42.00;;;;;;5057253;28;20032;-75
2021/04/01 14:00:20;;;;;;;16.63;8.32;;;21.10;43.00;;;;;;5039880;28;20119;-73
2021/04/01 14:09:09;;;;;;;13.18;6.65;;;21.60;42.10;;;;;;5051125;28;20460;-72
2021/04/01 14:11:39;;;;;;;13.63;6.20;;;21.10;42.50;;;;;;5048346;28;20847;-75
2021/04/01 14:14:05;;;;;;;10.52;5.30;;;21.00;43.20;;;;;;5052165;28;20033;-74
2021/04/01 14:16:33;;;;;;;9.88;5.75;;;20.70;43.90;;;;;;5051845;28;20075;-72
2021/04/01 14:19:00;;;;;;;10.50;4.75;;;20.80;44.20;;;;;;5052750;28;20488;-74
2021/04/01 14:21:26;;;;;;;7.63;3.45;;;20.80;44.20;;;;;;5050461;28;20025;-73
2021/04/01 14:23:52;;;;;;;9.13;2.97;;;20.80;44.20;;;;;;5051020;28;20040;-74
2021/04/01 14:26:29;;;;;;;10.27;2.80;;;20.80;43.40;;;;;;5051511;28;20041;-74
2021/04/01 14:28:55;;;;;;;15.50;3.70;;;20.70;43.70;;;;;;5052311;28;20025;-74
2021/04/01 14:31:21;;;;;;;10.35;3.20;;;20.80;43.40;;;;;;5050211;28;20110;-73
2021/04/01 14:33:48;;;;;;;12.60;2.58;;;20.60;44.30;;;;;;5051962;28;20503;-73
2021/04/01 14:36:16;;;;;;;7.38;1.70;;;20.50;44.40;;;;;;5050904;28;20040;-74